Time;durP1;ratioP1;P1;durP2;ratioP2;P2;SDS_P1;SDS_P2;PMS_P1;PMS_P2;Temp;Humidity;BMP_temperature;BMP_pressure;BME280_temperature;BME280_humidity;BME280_pressure;Samples;Min_cycle;Max_cycle;Signal;HPM_P1;HPM_P2
2022/05/16 00:01:04;;;;;;;9.80;6.15;;;;;;;12.76;100.00;100373.44;5149818;27;20023;-50
2022/05/16 00:03:30;;;;;;;9.30;6.50;;;;;;;12.81;100.00;100363.78;5147176;27;20031;-51
2022/05/16 00:05:55;;;;;;;12.45;6.47;;;;;;;12.83;100.00;100359.09;5149632;27;20030;-48
2022/05/16 00:08:20;;;;;;;13.68;8.25;;;;;;;12.80;100.00;100359.50;5149355;27;20029;-48
2022/05/16 00:10:46;;;;;;;12.32;7.82;;;;;;;12.71;100.00;100366.06;5148786;27;20442;-48
2022/05/16 00:13:11;;;;;;;10.13;7.00;;;;;;;12.68;100.00;100365.66;5148913;27;20034;-49
2022/05/16 00:15:36;;;;;;;12.25;8.65;;;;;;;12.64;100.00;100378.53;5129473;27;20464;-50
2022/05/16 00:18:03;;;;;;;9.00;6.18;;;;;;;12.64;100.00;100375.88;5149897;27;20118;-50
2022/05/16 00:20:29;;;;;;;12.48;7.47;;;;;;;12.64;100.00;100371.38;5149370;27;20030;-46
2022/05/16 00:22:54;;;;;;;16.67;9.52;;;;;;;12.62;100.00;100377.94;5147511;27;20144;-48
2022/05/16 00:25:20;;;;;;;12.90;7.10;;;;;;;12.58;100.00;100382.03;5148837;27;20134;-48
2022/05/16 00:27:46;;;;;;;11.77;7.10;;;;;;;12.53;100.00;100380.00;5147614;27;20383;-48
2022/05/16 00:30:17;;;;;;;12.27;6.90;;;;;;;12.51;100.00;100391.88;5148542;27;20030;-48
2022/05/16 00:32:42;;;;;;;9.70;7.85;;;;;;;12.50;100.00;100400.88;5145459;27;20107;-49
2022/05/16 00:35:09;;;;;;;6.10;5.35;;;;;;;12.50;100.00;100411.50;5149497;27;20054;-50
2022/05/16 00:37:35;;;;;;;8.15;5.18;;;;;;;12.50;100.00;100416.84;5143349;27;20031;-49
2022/05/16 00:40:00;;;;;;;13.27;6.97;;;;;;;12.48;100.00;100419.69;5149215;27;20027;-48
2022/05/16 00:42:26;;;;;;;8.50;5.55;;;;;;;12.49;100.00;100423.97;5149974;27;20066;-51
2022/05/16 00:44:51;;;;;;;7.85;5.93;;;;;;;12.50;100.00;100432.78;5149874;27;20050;-47
2022/05/16 00:47:17;;;;;;;6.35;5.65;;;;;;;12.50;100.00;100454.06;5145706;27;20035;-49
2022/05/16 00:49:47;;;;;;;12.65;8.77;;;;;;;12.46;100.00;100466.94;5138277;27;20027;-48
2022/05/16 00:52:20;;;;;;;15.25;8.98;;;;;;;12.49;100.00;100471.03;5143313;27;20022;-51
2022/05/16 00:54:51;;;;;;;14.52;9.57;;;;;;;12.50;100.00;100480.66;5149825;27;20099;-47
2022/05/16 00:57:23;;;;;;;11.60;8.63;;;;;;;12.48;100.00;100461.41;5145486;27;20395;-50
2022/05/16 01:00:03;;;;;;;14.23;7.60;;;;;;;12.43;100.00;100454.88;5141174;27;20514;-50
2022/05/16 01:05:16;;;;;;;11.30;7.70;;;;;;;12.18;100.00;100432.53;5145510;27;20084;-47
2022/05/16 01:07:44;;;;;;;9.85;7.22;;;;;;;12.08;100.00;100434.78;5144182;27;20118;-49
2022/05/16 01:10:13;;;;;;;10.70;7.13;;;;;;;11.99;100.00;100432.31;5145117;27;20031;-48
2022/05/16 01:12:42;;;;;;;9.88;7.53;;;;;;;11.94;100.00;100434.75;5148935;27;20089;-47
2022/05/16 01:15:11;;;;;;;11.40;8.52;;;;;;;11.90;100.00;100436.19;5136155;27;20026;-48
2022/05/16 01:17:38;;;;;;;14.35;9.55;;;;;;;11.84;100.00;100434.28;5141067;27;20027;-50
2022/05/16 01:20:05;;;;;;;13.55;8.57;;;;;;;11.83;100.00;100435.31;5126333;27;20022;-49
2022/05/16 01:22:35;;;;;;;10.27;8.52;;;;;;;11.79;100.00;100436.72;5149013;27;20519;-49
2022/05/16 01:25:10;;;;;;;9.73;7.82;;;;;;;11.74;100.00;100447.13;5123027;27;20044;-50
2022/05/16 01:27:47;;;;;;;9.60;6.97;;;;;;;11.75;100.00;100446.13;5147989;27;20107;-46
2022/05/16 01:30:16;;;;;;;8.27;7.00;;;;;;;11.77;100.00;100446.72;5142220;27;20041;-48
2022/05/16 01:32:41;;;;;;;9.82;8.40;;;;;;;11.75;100.00;100449.59;5148883;27;20392;-48
2022/05/16 01:35:07;;;;;;;11.23;7.65;;;;;;;11.75;100.00;100433.66;5149498;27;20023;-51
2022/05/16 01:40:16;;;;;;;15.05;8.25;;;;;;;11.77;100.00;100421.00;5148456;27;20087;-46
2022/05/16 01:42:42;;;;;;;20.38;10.05;;;;;;;11.77;100.00;100412.19;5149936;27;20030;-48
2022/05/16 01:45:08;;;;;;;16.02;9.93;;;;;;;11.77;100.00;100406.88;5136341;27;20033;-48
2022/05/16 01:47:34;;;;;;;11.18;8.75;;;;;;;11.69;100.00;100399.09;5140959;27;20120;-50
2022/05/16 01:49:59;;;;;;;14.40;9.02;;;;;;;11.61;100.00;100397.44;5148444;27;20476;-52
2022/05/16 01:52:25;;;;;;;10.32;7.30;;;;;;;11.57;100.00;100399.69;5149587;27;20039;-48
2022/05/16 01:54:51;;;;;;;12.02;8.82;;;;;;;11.53;100.00;100395.78;5149285;27;20087;-50
2022/05/16 01:57:17;;;;;;;9.50;7.35;;;;;;;11.48;100.00;100392.91;5145345;27;20434;-48
2022/05/16 01:59:42;;;;;;;12.05;8.95;;;;;;;11.49;100.00;100383.94;5145772;27;20023;-49
2022/05/16 02:02:07;;;;;;;9.90;8.05;;;;;;;11.44;100.00;100380.25;5149748;27;20026;-48
2022/05/16 02:04:33;;;;;;;15.48;9.63;;;;;;;11.41;100.00;100376.16;5144310;27;20023;-48
2022/05/16 02:06:58;;;;;;;11.35;8.98;;;;;;;11.32;100.00;100370.19;5128171;27;20030;-46
2022/05/16 02:09:24;;;;;;;12.60;9.48;;;;;;;11.28;100.00;100365.47;5144394;27;20478;-51
2022/05/16 02:11:50;;;;;;;12.13;9.15;;;;;;;11.24;100.00;100369.53;5149075;27;20387;-49
2022/05/16 02:14:15;;;;;;;10.43;8.43;;;;;;;11.21;100.00;100367.28;5149114;27;20041;-47
2022/05/16 02:16:40;;;;;;;10.70;8.95;;;;;;;11.19;100.00;100366.66;5144282;27;20036;-49
2022/05/16 02:19:06;;;;;;;11.57;7.80;;;;;;;11.24;100.00;100374.84;5143807;27;20031;-47
2022/05/16 02:26:58;;;;;;;9.57;7.47;;;;;;;11.31;100.00;100394.28;5148752;27;20061;-51
2022/05/16 02:29:24;;;;;;;9.88;8.27;;;;;;;11.32;100.00;100393.25;5140422;27;20050;-51
2022/05/16 02:31:50;;;;;;;8.95;7.72;;;;;;;11.35;100.00;100406.94;5143859;27;20031;-51
2022/05/16 02:34:16;;;;;;;10.07;7.80;;;;;;;11.38;100.00;100397.75;5149457;27;20023;-49
2022/05/16 02:36:41;;;;;;;12.13;7.70;;;;;;;11.40;100.00;100411.66;5140535;27;20035;-48
2022/05/16 02:39:06;;;;;;;11.90;9.43;;;;;;;11.44;100.00;100423.53;5146638;27;20035;-48
2022/05/16 02:41:32;;;;;;;10.38;7.90;;;;;;;11.49;100.00;100421.09;5149104;27;20022;-50
2022/05/16 02:43:57;;;;;;;19.05;10.32;;;;;;;11.51;100.00;100403.16;5148892;27;20109;-47
2022/05/16 02:46:23;;;;;;;14.68;10.07;;;;;;;11.47;100.00;100412.50;5146365;27;20065;-47
2022/05/16 02:48:48;;;;;;;10.30;7.72;;;;;;;11.44;100.00;100420.06;5139714;27;20019;-50
2022/05/16 02:51:13;;;;;;;10.68;8.50;;;;;;;11.43;100.00;100423.72;5148768;27;20049;-50
2022/05/16 02:53:39;;;;;;;9.88;7.95;;;;;;;11.43;100.00;100427.19;5142084;27;20069;-51
2022/05/16 02:56:04;;;;;;;12.18;9.23;;;;;;;11.44;100.00;100418.22;5137007;27;20497;-51
2022/05/16 02:58:30;;;;;;;14.05;9.75;;;;;;;11.47;100.00;100399.25;5145018;27;20448;-47
2022/05/16 03:00:55;;;;;;;10.35;8.52;;;;;;;11.46;100.00;100400.28;5139429;27;20391;-53
2022/05/16 03:03:20;;;;;;;14.50;9.57;;;;;;;11.46;100.00;100404.75;5147735;27;20027;-46
2022/05/16 03:05:45;;;;;;;15.05;10.10;;;;;;;11.44;100.00;100401.47;5148396;27;20134;-51
2022/05/16 03:08:11;;;;;;;12.55;9.18;;;;;;;11.43;100.00;100395.34;5144065;27;20054;-51
2022/05/16 03:10:36;;;;;;;13.43;10.65;;;;;;;11.41;100.00;100400.03;5145039;27;20049;-48
2022/05/16 03:13:02;;;;;;;12.30;8.80;;;;;;;11.42;100.00;100393.72;5147022;27;20027;-48
2022/05/16 03:15:30;;;;;;;15.35;8.77;;;;;;;11.40;100.00;100401.03;5147525;27;20055;-51
2022/05/16 03:17:55;;;;;;;8.60;7.57;;;;;;;11.42;100.00;100412.28;5144348;27;20023;-48
2022/05/16 03:20:21;;;;;;;10.40;8.10;;;;;;;11.43;100.00;100411.25;5142134;27;20039;-46
2022/05/16 03:22:46;;;;;;;10.40;7.80;;;;;;;11.44;100.00;100418.22;5147970;27;20030;-51
2022/05/16 03:25:12;;;;;;;11.30;8.23;;;;;;;11.47;100.00;100412.50;5149400;27;20070;-48
2022/05/16 03:27:37;;;;;;;14.52;11.13;;;;;;;11.49;100.00;100402.53;5152042;27;20041;-51
2022/05/16 03:30:05;;;;;;;10.18;8.98;;;;;;;11.51;100.00;100411.13;5152118;27;20028;-48
2022/05/16 03:32:31;;;;;;;12.00;9.18;;;;;;;11.52;100.00;100419.91;5152363;27;20109;-49
2022/05/16 03:34:56;;;;;;;17.20;10.75;;;;;;;11.53;100.00;100411.72;5143837;27;20181;-50
2022/05/16 03:37:22;;;;;;;10.73;9.40;;;;;;;11.53;100.00;100413.56;5150029;27;20436;-52
2022/05/16 03:42:32;;;;;;;13.38;10.93;;;;;;;11.49;100.00;100402.53;5150122;27;20288;-49
2022/05/16 03:44:57;;;;;;;15.75;10.60;;;;;;;11.45;100.00;100382.69;5149418;27;20031;-50
2022/05/16 03:47:23;;;;;;;12.55;10.05;;;;;;;11.43;100.00;100363.47;5151400;27;20022;-51
2022/05/16 03:49:48;;;;;;;19.77;11.75;;;;;;;11.40;100.00;100333.88;5145855;27;20451;-53
2022/05/16 03:52:14;;;;;;;17.23;11.88;;;;;;;11.38;100.00;100331.41;5152164;27;20087;-54
2022/05/16 03:54:43;;;;;;;18.30;12.68;;;;;;;11.41;100.00;100339.00;5144804;27;20090;-51
2022/05/16 03:57:08;;;;;;;13.93;9.88;;;;;;;11.42;100.00;100308.75;5148582;27;20027;-51
2022/05/16 03:59:34;;;;;;;14.20;10.68;;;;;;;11.43;100.00;100277.72;5146681;27;20027;-50
2022/05/16 04:01:59;;;;;;;18.55;12.73;;;;;;;11.41;100.00;100275.28;5149360;27;20475;-51
2022/05/16 04:04:26;;;;;;;21.45;12.70;;;;;;;11.42;100.00;100290.16;5146294;27;20046;-55
2022/05/16 04:06:51;;;;;;;16.85;11.35;;;;;;;11.44;100.00;100311.22;5148124;27;20475;-52
2022/05/16 04:09:16;;;;;;;19.00;11.13;;;;;;;11.44;100.00;100322.66;5146343;27;20070;-50
2022/05/16 04:11:42;;;;;;;20.08;12.35;;;;;;;11.46;100.00;100304.69;5145962;27;20022;-48
2022/05/16 04:14:08;;;;;;;18.77;12.55;;;;;;;11.44;100.00;100301.41;5151105;27;20026;-49
2022/05/16 04:16:33;;;;;;;17.30;12.68;;;;;;;11.43;100.00;100325.50;5148440;27;20030;-52
2022/05/16 04:18:59;;;;;;;11.90;9.95;;;;;;;11.40;100.00;100344.47;5144776;27;20030;-45
2022/05/16 04:21:25;;;;;;;15.68;11.10;;;;;;;11.42;100.00;100361.84;5143752;27;20073;-46
2022/05/16 04:23:50;;;;;;;15.00;9.77;;;;;;;11.42;100.00;100384.94;5146919;27;20037;-50
2022/05/16 04:26:16;;;;;;;17.40;11.70;;;;;;;11.39;100.00;100407.38;5150077;27;20108;-45
2022/05/16 04:28:41;;;;;;;14.32;12.25;;;;;;;11.42;100.00;100425.56;5147665;27;20050;-46
2022/05/16 04:31:07;;;;;;;17.17;10.80;;;;;;;11.47;100.00;100427.63;5150959;27;20062;-44
2022/05/16 04:33:35;;;;;;;15.13;11.65;;;;;;;11.47;100.00;100433.75;5150187;27;20042;-49
2022/05/16 04:36:01;;;;;;;11.23;10.07;;;;;;;11.49;100.00;100442.34;5148072;27;20487;-46
2022/05/16 04:38:27;;;;;;;21.95;13.10;;;;;;;11.56;100.00;100437.91;5132633;27;20046;-45
2022/05/16 04:43:36;;;;;;;20.15;12.63;;;;;;;11.63;100.00;100434.44;5151192;27;20037;-49
2022/05/16 04:46:06;;;;;;;22.80;12.60;;;;;;;11.68;100.00;100429.34;5147136;27;20395;-45
2022/05/16 04:48:32;;;;;;;14.60;9.68;;;;;;;11.69;100.00;100418.50;5151072;27;20477;-46
2022/05/16 04:50:57;;;;;;;18.02;11.73;;;;;;;11.73;100.00;100419.75;5145926;27;20106;-47
2022/05/16 04:53:22;;;;;;;18.00;11.90;;;;;;;11.76;100.00;100431.81;5150747;27;20176;-47
2022/05/16 04:55:48;;;;;;;17.27;10.75;;;;;;;11.78;100.00;100424.47;5147193;27;20038;-47
2022/05/16 04:58:13;;;;;;;10.85;9.48;;;;;;;11.79;100.00;100432.22;5147066;27;20361;-48
2022/05/16 05:00:39;;;;;;;17.48;10.43;;;;;;;11.83;100.00;100437.16;5150815;27;20023;-49
2022/05/16 05:03:04;;;;;;;16.45;11.75;;;;;;;11.85;100.00;100435.09;5128469;27;20035;-45
2022/05/16 05:05:30;;;;;;;17.45;11.63;;;;;;;11.87;100.00;100427.78;5150639;27;20527;-48
2022/05/16 05:07:55;;;;;;;19.42;12.40;;;;;;;11.88;100.00;100438.22;5148412;27;20314;-45
2022/05/16 05:16:02;;;;;;;16.92;11.60;;;;;;;11.89;100.00;100431.06;5141869;27;20122;-46
2022/05/16 05:18:27;;;;;;;18.80;12.20;;;;;;;11.85;100.00;100437.75;5146955;27;20040;-46
2022/05/16 05:20:52;;;;;;;16.95;10.35;;;;;;;11.85;100.00;100445.72;5145870;27;20481;-46
2022/05/16 05:23:18;;;;;;;19.08;12.52;;;;;;;11.89;100.00;100463.75;5148124;27;20516;-45
2022/05/16 05:25:43;;;;;;;14.15;11.55;;;;;;;11.93;100.00;100470.31;5144124;27;20046;-45
2022/05/16 05:28:08;;;;;;;20.02;12.75;;;;;;;11.99;100.00;100469.50;5144802;27;20238;-49
2022/05/16 05:30:33;;;;;;;18.85;12.93;;;;;;;12.06;100.00;100476.69;5145754;27;20468;-49
2022/05/16 05:32:59;;;;;;;16.85;12.73;;;;;;;12.11;100.00;100482.22;5145899;27;20029;-45
2022/05/16 05:35:25;;;;;;;14.07;10.95;;;;;;;12.15;100.00;100484.25;5145897;27;20660;-47
2022/05/16 05:37:51;;;;;;;20.52;12.57;;;;;;;12.19;100.00;100492.69;5144942;27;20034;-45
2022/05/16 05:40:16;;;;;;;19.98;14.00;;;;;;;12.21;100.00;100494.13;5145720;27;20031;-46
2022/05/16 05:42:42;;;;;;;22.45;14.52;;;;;;;12.21;100.00;100496.78;5141588;27;20057;-51
2022/05/16 05:45:09;;;;;;;22.13;14.40;;;;;;;12.23;100.00;100502.69;5138489;27;20046;-45
2022/05/16 05:47:35;;;;;;;20.05;14.85;;;;;;;12.23;100.00;100501.88;5148757;27;20502;-47
2022/05/16 05:50:01;;;;;;;22.17;16.27;;;;;;;12.25;100.00;100504.34;5139533;27;20494;-48
2022/05/16 05:52:29;;;;;;;25.27;15.43;;;;;;;12.26;100.00;100501.47;5147886;27;20465;-50
2022/05/16 05:54:56;;;;;;;22.67;16.23;;;;;;;12.29;100.00;100502.91;5149674;27;20146;-47
2022/05/16 05:57:22;;;;;;;22.08;14.70;;;;;;;12.34;100.00;100511.09;5139956;27;20050;-49
2022/05/16 05:59:48;;;;;;;25.35;18.05;;;;;;;12.37;100.00;100519.50;5146430;27;20027;-47
2022/05/16 06:02:14;;;;;;;18.70;13.93;;;;;;;12.38;100.00;100523.78;5147899;27;20109;-49
2022/05/16 06:04:40;;;;;;;27.50;17.52;;;;;;;12.45;100.00;100521.16;5148877;27;20485;-47
2022/05/16 06:07:06;;;;;;;25.48;17.70;;;;;;;12.51;100.00;100540.78;5141792;27;20109;-47
2022/05/16 06:09:31;;;;;;;23.20;13.85;;;;;;;12.54;100.00;100543.84;5145218;27;20022;-46
2022/05/16 06:11:59;;;;;;;20.38;14.68;;;;;;;12.58;100.00;100539.78;5147588;27;20470;-47
2022/05/16 06:14:28;;;;;;;24.23;15.98;;;;;;;12.61;100.00;100557.19;5147917;27;20050;-48
2022/05/16 06:16:54;;;;;;;18.85;15.13;;;;;;;12.63;100.00;100560.47;5142641;27;20027;-51
2022/05/16 06:19:20;;;;;;;22.63;13.95;;;;;;;12.65;100.00;100561.91;5139546;27;20383;-46
2022/05/16 06:21:45;;;;;;;26.40;15.95;;;;;;;12.70;100.00;100569.28;5146640;27;20037;-49
2022/05/16 06:25:31;;;;;;;33.75;16.65;;;;;;;12.72;100.00;100575.19;5132459;27;20505;-46
2022/05/16 06:26:57;;;;;;;23.75;15.80;;;;;;;12.76;100.00;100575.63;5133380;27;20439;-47
2022/05/16 06:29:24;;;;;;;23.77;16.15;;;;;;;12.80;100.00;100580.34;5136506;27;20042;-47
2022/05/16 06:31:49;;;;;;;22.83;15.75;;;;;;;12.81;100.00;100584.63;5135662;27;20031;-47
2022/05/16 06:34:15;;;;;;;23.55;15.43;;;;;;;12.87;100.00;100589.13;5138118;27;20391;-46
2022/05/16 06:36:40;;;;;;;22.80;13.45;;;;;;;12.92;100.00;100593.03;5142016;27;20031;-48
2022/05/16 06:39:05;;;;;;;36.53;13.68;;;;;;;12.98;100.00;100589.53;5143988;27;20031;-49
2022/05/16 06:41:32;;;;;;;24.38;14.60;;;;;;;13.03;100.00;100595.06;5142191;27;20039;-47
2022/05/16 06:43:58;;;;;;;34.38;18.15;;;;;;;13.10;100.00;100598.56;5145861;27;20050;-50
2022/05/16 06:46:23;;;;;;;24.20;14.82;;;;;;;13.13;100.00;100597.34;5142482;27;20062;-47
2022/05/16 06:48:49;;;;;;;24.45;12.50;;;;;;;13.14;100.00;100610.47;5142869;27;20026;-49
2022/05/16 06:51:14;;;;;;;28.30;13.60;;;;;;;13.18;100.00;100616.19;5141927;27;20027;-50
2022/05/16 06:53:39;;;;;;;23.52;14.27;;;;;;;13.22;100.00;100620.09;5136156;27;20342;-48
2022/05/16 06:56:05;;;;;;;20.88;13.05;;;;;;;13.27;100.00;100610.47;5140521;27;20035;-48
2022/05/16 06:58:30;;;;;;;16.40;11.23;;;;;;;13.33;100.00;100629.31;5131259;27;20030;-47
2022/05/16 07:00:56;;;;;;;21.55;11.13;;;;;;;13.36;100.00;100628.91;5133377;27;20910;-51
2022/05/16 07:03:22;;;;;;;27.15;14.27;;;;;;;13.42;100.00;100638.72;5145673;27;20384;-49
2022/05/16 07:05:49;;;;;;;25.83;11.07;;;;;;;13.44;100.00;100647.34;5139027;27;21159;-48
2022/05/16 07:08:15;;;;;;;17.30;10.57;;;;;;;13.45;100.00;100649.81;5143623;27;20022;-48
2022/05/16 07:10:41;;;;;;;22.83;11.40;;;;;;;13.47;100.00;100641.59;5141349;27;20019;-48
2022/05/16 07:13:08;;;;;;;14.65;8.60;;;;;;;13.51;100.00;100648.16;5146497;27;20475;-47
2022/05/16 07:15:33;;;;;;;13.60;9.98;;;;;;;13.61;100.00;100645.91;5144834;27;20029;-47
2022/05/16 07:17:59;;;;;;;12.23;7.78;;;;;;;13.70;100.00;100652.63;5145993;27;20031;-54
2022/05/16 07:20:25;;;;;;;9.07;6.47;;;;;;;13.80;100.00;100654.06;5147530;27;20391;-51
2022/05/16 07:22:50;;;;;;;15.82;7.95;;;;;;;13.88;100.00;100664.50;5145277;27;20030;-47
2022/05/16 07:25:22;;;;;;;9.45;5.97;;;;;;;14.07;100.00;100666.31;5147945;27;20144;-49
2022/05/16 07:27:57;;;;;;;9.57;6.03;;;;;;;14.24;100.00;100657.84;5142405;27;20031;-50
2022/05/16 07:30:24;;;;;;;14.65;5.70;;;;;;;14.43;100.00;100656.97;5149099;27;20185;-47
2022/05/16 07:32:50;;;;;;;11.05;5.18;;;;;;;14.55;100.00;100665.94;5146723;27;20023;-47
2022/05/16 07:35:19;;;;;;;12.23;5.38;;;;;;;14.67;100.00;100663.44;5142383;27;20041;-49
2022/05/16 07:37:45;;;;;;;8.82;5.25;;;;;;;14.88;100.00;100656.94;5142891;27;20030;-48
2022/05/16 07:40:12;;;;;;;13.88;4.25;;;;;;;14.87;100.00;100646.47;5149138;27;20022;-51
2022/05/16 07:42:38;;;;;;;11.18;4.45;;;;;;;14.76;100.00;100646.13;5128727;27;20363;-49
2022/05/16 07:45:06;;;;;;;14.57;5.55;;;;;;;14.71;100.00;100643.28;5135222;27;20083;-52
2022/05/16 07:47:32;;;;;;;8.70;3.83;;;;;;;14.67;100.00;100641.28;5140145;27;20046;-49
2022/05/16 07:49:59;;;;;;;11.07;4.07;;;;;;;14.66;100.00;100639.63;5147546;27;20019;-48
2022/05/16 07:52:25;;;;;;;9.75;4.00;;;;;;;14.65;100.00;100636.13;5140690;27;20039;-48
2022/05/16 07:54:51;;;;;;;12.73;4.03;;;;;;;14.66;100.00;100632.44;5128915;27;20451;-45
2022/05/16 07:57:17;;;;;;;8.85;3.38;;;;;;;14.71;100.00;100631.78;5137621;27;20048;-49
2022/05/16 07:59:43;;;;;;;8.50;3.63;;;;;;;14.69;100.00;100621.34;5132358;27;20039;-51
2022/05/16 08:02:08;;;;;;;11.93;3.80;;;;;;;14.69;100.00;100629.34;5128151;27;20034;-46
2022/05/16 08:04:34;;;;;;;6.93;2.72;;;;;;;14.71;100.00;100623.78;5129567;27;20050;-50
2022/05/16 08:07:04;;;;;;;4.68;2.35;;;;;;;14.77;100.00;100637.09;5126626;27;20046;-52
2022/05/16 08:12:13;;;;;;;9.68;3.42;;;;;;;15.03;100.00;100644.13;5127706;27;20035;-51
2022/05/16 08:14:43;;;;;;;9.55;3.13;;;;;;;15.04;100.00;100636.91;5125989;27;20031;-45
2022/05/16 08:17:09;;;;;;;11.95;3.20;;;;;;;15.09;100.00;100633.59;5125226;27;20031;-51
2022/05/16 08:19:35;;;;;;;6.00;2.50;;;;;;;15.25;100.00;100644.56;5127679;27;20451;-51
2022/05/16 08:22:00;;;;;;;6.15;3.75;;;;;;;15.48;100.00;100638.59;5127553;27;20030;-50
2022/05/16 08:24:27;;;;;;;5.55;2.70;;;;;;;15.63;100.00;100627.56;5126488;27;20634;-48
2022/05/16 08:26:53;;;;;;;5.47;2.47;;;;;;;15.69;100.00;100639.28;5125615;27;20031;-51
2022/05/16 08:29:18;;;;;;;2.65;2.40;;;;;;;15.67;100.00;100636.00;5129971;27;20038;-51
2022/05/16 08:31:43;;;;;;;8.20;2.75;;;;;;;15.60;100.00;100638.72;5126832;27;20393;-52
2022/05/16 08:34:09;;;;;;;6.85;2.03;;;;;;;15.60;100.00;100632.56;5130849;27;20515;-47
2022/05/16 08:42:08;;;;;;;4.03;2.95;;;;;;;15.86;100.00;100624.28;5129326;27;20523;-46
2022/05/16 08:44:40;;;;;;;14.27;3.95;;;;;;;15.94;100.00;100643.75;5122892;27;20043;-54
2022/05/16 08:47:20;;;;;;;;;;;;;;;15.87;100.00;100636.59;5129285;27;20066;-45
2022/05/16 08:49:55;;;;;;;4.00;2.88;;;;;;;15.77;100.00;100630.16;5124900;27;19923;-48
2022/05/16 08:52:36;;;;;;;6.40;2.13;;;;;;;15.75;100.00;100646.44;5127134;27;21200;-50
2022/05/16 08:55:24;;;;;;;6.70;2.17;;;;;;;15.76;100.00;100655.25;5128052;27;20115;-48
2022/05/16 08:58:11;;;;;;;4.40;2.00;;;;;;;15.80;100.00;100648.41;5124272;27;20031;-48
2022/05/16 09:00:49;;;;;;;9.38;1.92;;;;;;;15.81;100.00;100648.19;5129094;27;20062;-47
2022/05/16 09:03:42;;;;;;;7.22;3.00;;;;;;;15.70;100.00;100647.06;5126282;27;20181;-48
2022/05/16 09:06:31;;;;;;;6.78;3.00;;;;;;;15.69;100.00;100658.81;5126024;27;20035;-52
2022/05/16 09:09:02;;;;;;;6.15;2.20;;;;;;;15.68;100.00;100665.16;5116426;27;20047;-48
2022/05/16 09:11:36;;;;;;;3.47;2.08;;;;;;;15.67;100.00;100668.88;5130254;27;20452;-49
2022/05/16 09:14:22;;;;;;;11.52;3.58;;;;;;;15.62;100.00;100662.56;5127886;27;20042;-47
2022/05/16 09:16:58;;;;;;;6.10;2.22;;;;;;;15.87;100.00;100673.22;5116370;27;20051;-45
2022/05/16 09:20:02;;;;;;;3.83;2.40;;;;;;;16.23;100.00;100672.44;5127470;27;20026;-48
2022/05/16 09:22:57;;;;;;;4.15;1.35;;;;;;;16.45;100.00;100659.41;5119458;27;20074;-46
2022/05/16 09:25:27;;;;;;;5.45;1.52;;;;;;;16.62;100.00;100672.97;5128476;27;20048;-47
2022/05/16 09:31:12;;;;;;;4.60;1.73;;;;;;;16.25;100.00;100688.25;5046569;28;20277;-48
2022/05/16 09:33:44;;;;;;;5.88;1.35;;;;;;;16.00;100.00;100691.00;5046400;28;20044;-49
2022/05/16 09:36:15;;;;;;;5.90;2.58;;;;;;;15.80;100.00;100701.88;5089441;27;20035;-45
2022/05/16 09:38:44;;;;;;;2.85;1.38;;;;;;;15.67;100.00;100700.13;5127463;27;20031;-49
2022/05/16 09:41:15;;;;;;;5.80;1.30;;;;;;;15.60;100.00;100700.19;5129382;27;20047;-46
2022/05/16 09:43:43;;;;;;;5.80;1.33;;;;;;;15.64;100.00;100708.56;5127627;27;20035;-45
2022/05/16 09:46:18;;;;;;;3.13;2.20;;;;;;;15.72;100.00;100710.19;5128000;27;20039;-52
2022/05/16 09:48:43;;;;;;;8.30;2.53;;;;;;;15.73;100.00;100715.31;5125321;27;20049;-49
2022/05/16 09:51:09;;;;;;;2.30;1.00;;;;;;;15.68;100.00;100717.81;5131561;27;20027;-46
2022/05/16 09:53:38;;;;;;;6.90;3.10;;;;;;;15.64;100.00;100722.78;5136054;27;20422;-51
2022/05/16 09:56:11;;;;;;;7.85;1.08;;;;;;;15.74;100.00;100732.97;5126519;27;20125;-47
2022/05/16 09:59:01;;;;;;;5.75;1.88;;;;;;;15.74;100.00;100746.34;5130053;27;20031;-49
2022/05/16 10:01:40;;;;;;;7.75;2.00;;;;;;;15.82;100.00;100756.75;5131437;27;20392;-45
2022/05/16 10:04:14;;;;;;;2.35;1.55;;;;;;;16.08;100.00;100754.91;5131449;27;20127;-47
2022/05/16 10:06:44;;;;;;;5.97;1.80;;;;;;;16.21;100.00;100745.91;5133145;27;20027;-45
2022/05/16 10:09:14;;;;;;;3.83;0.85;;;;;;;16.21;100.00;100749.44;5133272;27;20112;-45
2022/05/16 10:11:42;;;;;;;7.75;1.10;;;;;;;16.16;100.00;100757.31;5138118;27;20065;-49
2022/05/16 10:14:09;;;;;;;4.03;1.75;;;;;;;16.14;100.00;100756.69;5136946;27;20082;-45
2022/05/16 10:16:45;;;;;;;5.55;1.30;;;;;;;16.33;100.00;100747.63;5132391;27;20042;-45
2022/05/16 10:19:15;;;;;;;7.88;2.47;;;;;;;16.52;100.00;100756.50;5131408;27;20026;-48
2022/05/16 10:22:10;;;;;;;3.50;0.65;;;;;;;16.61;100.00;100762.38;5132791;27;20053;-50
2022/05/16 10:24:42;;;;;;;1.75;0.40;;;;;;;16.66;100.00;100762.50;5128306;27;20095;-48
2022/05/16 10:27:11;;;;;;;5.57;0.60;;;;;;;16.67;100.00;100756.09;5131109;27;20039;-48
2022/05/16 10:29:41;;;;;;;1.98;0.77;;;;;;;16.71;100.00;100765.34;5116529;27;20041;-46
2022/05/16 10:35:07;;;;;;;4.63;0.32;;;;;;;16.67;100.00;100769.50;5135823;27;20061;-47
2022/05/16 10:37:36;;;;;;;7.00;0.60;;;;;;;16.62;100.00;100774.69;5134182;27;20078;-46
2022/05/16 10:40:27;;;;;;;3.40;1.20;;;;;;;16.71;100.00;100769.88;5135761;27;20112;-46
2022/05/16 10:43:29;;;;;;;8.57;1.33;;;;;;;16.98;100.00;100773.06;5128406;27;20034;-46
2022/05/16 10:46:03;;;;;;;1.50;0.50;;;;;;;17.19;100.00;100771.75;5127869;27;20299;-53
2022/05/16 10:48:43;;;;;;;4.03;1.13;;;;;;;17.18;100.00;100765.56;5131179;27;20038;-49
2022/05/16 10:51:12;;;;;;;4.10;0.47;;;;;;;17.46;100.00;100766.00;5130810;27;20035;-46
2022/05/16 10:53:56;;;;;;;10.02;2.25;;;;;;;18.23;100.00;100777.53;5134055;27;20026;-50
2022/05/16 10:56:30;;;;;;;6.30;0.85;;;;;;;18.96;100.00;100764.56;5131300;27;20118;-51
2022/05/16 10:59:20;;;;;;;3.92;1.50;;;;;;;19.29;100.00;100753.09;5126898;27;20027;-47
2022/05/16 11:02:27;;;;;;;5.47;1.50;;;;;;;19.06;100.00;100745.94;5126009;27;20039;-51
2022/05/16 11:05:24;;;;;;;5.90;1.30;;;;;;;19.08;100.00;100746.53;5126779;27;20034;-51
2022/05/16 11:08:09;;;;;;;2.88;1.27;;;;;;;19.06;100.00;100750.50;5132823;27;20152;-48
2022/05/16 11:10:41;;;;;;;3.72;0.75;;;;;;;18.89;100.00;100748.56;5131356;27;21404;-48
2022/05/16 11:13:36;;;;;;;8.32;0.52;;;;;;;18.89;100.00;100753.13;5134723;27;20035;-45
2022/05/16 11:16:32;;;;;;;9.20;0.82;;;;;;;19.07;100.00;100761.00;5129201;27;20041;-46
2022/05/16 11:19:18;;;;;;;3.92;0.60;;;;;;;19.23;100.00;100753.22;5115019;27;20070;-47
2022/05/16 11:22:05;;;;;;;5.80;1.40;;;;;;;19.10;100.00;100733.69;5128101;27;20035;-50
2022/05/16 11:24:44;;;;;;;6.63;0.85;;;;;;;19.21;100.00;100731.97;5134324;27;20415;-47
2022/05/16 11:27:27;;;;;;;3.22;0.40;;;;;;;19.55;100.00;100745.44;5137659;27;20499;-52
2022/05/16 11:30:17;;;;;;;4.13;0.60;;;;;;;20.14;100.00;100748.53;5132402;27;20303;-46
2022/05/16 11:33:08;;;;;;;11.02;1.52;;;;;;;20.07;100.00;100744.38;5135064;27;20035;-47
2022/05/16 11:35:48;;;;;;;6.22;1.30;;;;;;;19.65;100.00;100737.53;5143254;27;20532;-48
2022/05/16 11:38:16;;;;;;;6.85;2.03;;;;;;;19.23;100.00;100753.22;5142936;27;20487;-50
2022/05/16 11:41:07;;;;;;;4.20;1.02;;;;;;;19.08;100.00;100749.22;5128816;27;20146;-52
2022/05/16 11:43:36;;;;;;;6.10;0.90;;;;;;;19.03;100.00;100749.13;5132935;27;20127;-50
2022/05/16 11:46:23;;;;;;;4.18;0.90;;;;;;;19.23;100.00;100742.47;5129790;27;20400;-46
2022/05/16 11:49:04;;;;;;;8.32;1.67;;;;;;;19.64;100.00;100738.59;5110907;27;20531;-50
2022/05/16 11:51:50;;;;;;;3.47;1.38;;;;;;;19.88;100.00;100736.59;5135671;27;20049;-47
2022/05/16 11:54:20;;;;;;;7.65;1.67;;;;;;;19.86;100.00;100744.09;5129919;27;20058;-52
2022/05/16 12:02:48;;;;;;;2.92;0.80;;;;;;;20.77;100.00;100734.78;5129928;27;20057;-48